createdAt,value
2018-10-19T00:03:48.606Z,14.50
2018-10-19T00:08:52.631Z,14.50
2018-10-19T00:13:56.690Z,14.50
2018-10-19T00:19:00.580Z,14.60
2018-10-19T00:24:25.303Z,14.40
2018-10-19T00:29:29.703Z,14.40
2018-10-19T00:34:33.619Z,14.60
2018-10-19T00:39:37.612Z,14.30
2018-10-19T00:44:41.609Z,14.30
2018-10-19T00:49:48.824Z,14.40
2018-10-19T00:54:52.737Z,14.50
2018-10-19T00:59:56.662Z,14.20
2018-10-19T01:05:00.536Z,14.50
2018-10-19T01:10:04.580Z,14.30
2018-10-19T01:15:08.536Z,14.60
2018-10-19T01:20:12.368Z,13.90
2018-10-19T01:25:16.332Z,14.20
2018-10-19T01:30:20.416Z,14.00
2018-10-19T01:35:24.392Z,13.70
2018-10-19T01:40:28.298Z,13.60
2018-10-19T01:45:32.206Z,13.70
2018-10-19T01:50:36.172Z,13.60
2018-10-19T01:55:40.078Z,13.80
2018-10-19T02:00:44.053Z,13.60
2018-10-19T02:05:47.978Z,13.70
2018-10-19T02:10:51.885Z,13.40
2018-10-19T02:15:55.820Z,12.80
2018-10-19T02:20:59.805Z,13.10
2018-10-19T02:26:03.956Z,13.10
2018-10-19T02:31:07.968Z,13.00
2018-10-19T02:36:11.869Z,12.80
2018-10-19T02:41:15.896Z,12.60
2018-10-19T02:46:19.739Z,12.30
2018-10-19T02:51:23.645Z,12.40
2018-10-19T02:56:27.584Z,12.30
2018-10-19T03:01:31.543Z,13.10
2018-10-19T03:06:35.495Z,12.30
2018-10-19T03:11:39.774Z,12.00
2018-10-19T03:16:43.677Z,12.00
2018-10-19T03:22:04.146Z,11.90
2018-10-19T03:27:08.669Z,11.80
2018-10-19T03:32:12.701Z,12.10
2018-10-19T03:37:16.758Z,11.90
2018-10-19T03:42:20.795Z,12.00
2018-10-19T03:47:24.861Z,12.30
2018-10-19T03:52:29.166Z,12.30
2018-10-19T03:57:33.149Z,12.30
2018-10-19T04:02:37.144Z,12.30
2018-10-19T04:07:41.091Z,12.40
2018-10-19T04:12:46.518Z,12.30
2018-10-19T04:17:50.351Z,12.80
2018-10-19T04:23:09.505Z,12.90
2018-10-19T04:28:13.449Z,12.90
2018-10-19T04:33:19.687Z,13.00
2018-10-19T04:38:23.691Z,13.10
2018-10-19T04:43:28.675Z,12.80
2018-10-19T04:48:32.617Z,13.00
2018-10-19T04:53:40.186Z,13.00
2018-10-19T04:58:44.217Z,12.80
2018-10-19T05:03:48.074Z,12.90
2018-10-19T05:08:51.998Z,12.80
2018-10-19T05:13:56.003Z,12.80
2018-10-19T05:18:59.879Z,12.70
2018-10-19T05:24:03.950Z,13.00
2018-10-19T05:29:07.902Z,12.80
2018-10-19T05:34:11.758Z,13.10
2018-10-19T05:39:15.781Z,13.30
2018-10-19T05:44:19.725Z,13.00
2018-10-19T05:49:23.613Z,12.80
2018-10-19T05:54:27.566Z,13.00
2018-10-19T05:59:39.394Z,12.90
2018-10-19T06:04:43.385Z,12.50
2018-10-19T06:09:47.279Z,12.50
2018-10-19T06:14:51.165Z,12.80
2018-10-19T06:19:55.383Z,13.10
2018-10-19T06:25:00.019Z,11.30
2018-10-19T06:30:04.165Z,13.00
2018-10-19T06:35:08.534Z,13.00
2018-10-19T06:40:12.739Z,13.00
2018-10-19T06:45:16.878Z,13.60
2018-10-19T06:50:21.055Z,13.80
2018-10-19T06:55:26.491Z,9.60
2018-10-19T07:00:30.436Z,14.20
2018-10-19T07:05:34.387Z,14.50
2018-10-19T07:10:38.491Z,14.20
2018-10-19T07:15:42.347Z,14.20
2018-10-19T07:20:46.289Z,14.20
2018-10-19T07:25:50.229Z,14.00
2018-10-19T07:30:54.161Z,14.10
2018-10-19T07:36:06.635Z,14.10
2018-10-19T07:41:10.676Z,14.40
2018-10-19T07:46:14.772Z,14.60
2018-10-19T07:51:18.958Z,14.60
2018-10-19T07:56:25.741Z,14.10
2018-10-19T08:01:31.378Z,14.10
2018-10-19T08:06:35.890Z,14.40
2018-10-19T08:11:40.701Z,14.70
2018-10-19T08:16:45.110Z,14.80
2018-10-19T08:21:50.162Z,14.60
2018-10-19T08:26:59.127Z,14.60
2018-10-19T08:32:03.138Z,14.80
2018-10-19T08:37:08.093Z,14.70
2018-10-19T08:42:12.547Z,15.30
2018-10-19T08:47:17.827Z,15.50
2018-10-19T08:52:22.439Z,15.70
2018-10-19T08:57:26.440Z,16.00
2018-10-19T09:02:32.809Z,15.70
2018-10-19T09:07:37.173Z,15.90
2018-10-19T09:12:43.008Z,15.80
2018-10-19T09:17:47.339Z,16.20
2018-10-19T09:22:51.176Z,16.70
2018-10-19T09:27:59.013Z,17.10
2018-10-19T09:33:03.000Z,17.40
2018-10-19T09:38:08.371Z,17.60
2018-10-19T09:43:12.942Z,18.00
2018-10-19T09:48:18.089Z,18.90
2018-10-19T09:53:22.926Z,19.00
2018-10-19T09:58:27.462Z,21.10
2018-10-19T10:03:32.828Z,22.30
2018-10-19T10:08:37.309Z,22.80
2018-10-19T10:13:42.181Z,23.00
2018-10-19T10:18:46.702Z,23.10
2018-10-19T10:23:51.277Z,23.10
2018-10-19T10:28:55.521Z,23.90
2018-10-19T10:33:59.906Z,23.90
2018-10-19T10:39:05.836Z,25.20
2018-10-19T10:44:10.270Z,25.20
2018-10-19T10:49:15.630Z,25.40
2018-10-19T10:54:20.235Z,26.30
2018-10-19T10:59:25.308Z,26.50
2018-10-19T11:04:30.642Z,26.10
2018-10-19T11:09:35.515Z,25.60
2018-10-19T11:14:39.432Z,25.80
2018-10-19T11:19:44.155Z,26.20
2018-10-19T11:24:48.549Z,25.60
2018-10-19T11:29:52.471Z,24.60
2018-10-19T11:34:56.540Z,24.60
2018-10-19T11:40:13.075Z,24.40
2018-10-19T11:45:16.883Z,25.80
2018-10-19T11:50:21.866Z,26.60
2018-10-19T11:55:25.794Z,26.90
2018-10-19T12:00:29.747Z,26.60
2018-10-19T12:05:33.863Z,25.70
2018-10-19T12:10:37.901Z,25.50
2018-10-19T12:15:41.816Z,25.40
2018-10-19T12:20:45.778Z,25.60
2018-10-19T12:25:49.746Z,25.30
2018-10-19T12:30:53.683Z,26.20
2018-10-19T12:35:57.510Z,26.00
2018-10-19T12:41:01.536Z,26.30
2018-10-19T12:46:36.871Z,25.50
2018-10-19T12:51:40.883Z,25.60
2018-10-19T12:56:44.937Z,25.10
2018-10-19T13:01:49.262Z,25.40
2018-10-19T13:06:53.353Z,25.30
2018-10-19T13:11:57.340Z,25.10
2018-10-19T13:17:01.326Z,25.60
2018-10-19T13:22:05.301Z,25.50
2018-10-19T13:27:09.384Z,25.10
2018-10-19T13:32:13.304Z,25.20
2018-10-19T13:37:17.397Z,24.70
2018-10-19T13:42:21.269Z,24.80
2018-10-19T13:47:25.173Z,24.30
2018-10-19T13:52:29.200Z,22.90
2018-10-19T13:57:35.917Z,22.80
2018-10-19T14:02:41.287Z,23.20
2018-10-19T14:07:45.258Z,23.90
2018-10-19T14:12:49.218Z,24.20
2018-10-19T14:17:53.127Z,24.30
2018-10-19T14:22:57.125Z,24.80
2018-10-19T14:28:01.173Z,24.50
2018-10-19T14:33:09.627Z,24.30
2018-10-19T14:38:15.889Z,24.10
2018-10-19T14:43:19.902Z,24.00
2018-10-19T14:48:23.865Z,23.70
2018-10-19T14:53:29.627Z,23.90
2018-10-19T14:58:33.713Z,23.00
2018-10-19T15:03:37.698Z,23.30
2018-10-19T15:08:41.820Z,22.40
2018-10-19T15:13:45.811Z,21.20
2018-10-19T15:18:49.953Z,20.60
2018-10-19T15:24:18.093Z,20.00
2018-10-19T15:29:22.073Z,19.80
2018-10-19T15:34:25.974Z,19.60
2018-10-19T15:39:30.340Z,19.40
2018-10-19T15:44:34.685Z,19.00
2018-10-19T15:49:38.712Z,18.60
2018-10-19T15:54:42.608Z,18.60
2018-10-19T15:59:46.456Z,18.50
2018-10-19T16:04:50.645Z,18.50
2018-10-19T16:09:55.282Z,18.40
2018-10-19T16:14:59.206Z,18.00
2018-10-19T16:20:03.128Z,17.90
2018-10-19T16:25:07.662Z,17.80
2018-10-19T16:30:12.014Z,17.60
2018-10-19T16:35:15.900Z,17.30
2018-10-19T16:40:19.933Z,17.00
2018-10-19T16:45:24.084Z,16.90
2018-10-19T16:50:28.117Z,16.80
2018-10-19T16:55:32.103Z,16.70
2018-10-19T17:00:36.223Z,16.70
2018-10-19T17:05:41.730Z,16.70
2018-10-19T17:10:45.825Z,16.80
2018-10-19T17:15:49.889Z,16.70
2018-10-19T17:20:53.939Z,16.50
2018-10-19T17:25:58.078Z,16.50
2018-10-19T17:31:03.909Z,16.60
2018-10-19T17:36:08.021Z,16.60
2018-10-19T17:41:12.193Z,16.60
2018-10-19T17:46:16.436Z,16.60
2018-10-19T17:51:20.515Z,16.50
2018-10-19T17:56:24.510Z,16.50
2018-10-19T18:01:28.596Z,16.40
2018-10-19T18:06:32.715Z,16.30
2018-10-19T18:11:36.814Z,16.30
2018-10-19T18:16:40.786Z,16.20
2018-10-19T18:21:45.088Z,16.20
2018-10-19T18:26:49.554Z,16.20
2018-10-19T18:31:53.607Z,16.30
2018-10-19T18:37:18.400Z,16.20
2018-10-19T18:42:22.453Z,16.20
2018-10-19T18:47:26.397Z,16.00
2018-10-19T18:52:30.303Z,15.90
2018-10-19T18:57:34.339Z,15.90
2018-10-19T19:02:38.333Z,15.80
2018-10-19T19:07:42.213Z,15.80
2018-10-19T19:12:46.204Z,15.80
2018-10-19T19:17:50.219Z,15.70
2018-10-19T19:22:54.980Z,14.70
2018-10-19T19:27:59.588Z,14.50
2018-10-19T19:38:12.733Z,14.30
2018-10-19T19:48:25.687Z,14.60
2018-10-19T19:53:30.114Z,14.60
2018-10-19T19:58:34.047Z,14.90
2018-10-19T20:03:38.178Z,14.40
2018-10-19T20:08:42.237Z,13.90
2018-10-19T20:13:46.264Z,13.60
2018-10-19T20:18:50.348Z,13.70
2018-10-19T20:28:58.118Z,13.90
2018-10-19T20:34:02.133Z,13.90
2018-10-19T20:39:08.231Z,13.70
2018-10-19T20:44:12.190Z,13.70
2018-10-19T20:49:39.163Z,13.90
2018-10-19T20:54:43.274Z,13.90
2018-10-19T20:59:47.174Z,14.00
2018-10-19T21:04:51.241Z,14.20
2018-10-19T21:09:55.158Z,14.30
2018-10-19T21:14:59.091Z,14.40
2018-10-19T21:20:03.131Z,14.50
2018-10-19T21:25:08.079Z,14.30
2018-10-19T21:30:13.070Z,14.40
2018-10-19T21:35:17.062Z,14.20
2018-10-19T21:40:20.968Z,14.20
2018-10-19T21:45:24.931Z,14.40
2018-10-19T21:50:28.819Z,14.30
2018-10-19T21:55:32.732Z,14.30
2018-10-19T22:00:36.674Z,14.20
2018-10-19T22:05:40.519Z,14.20
2018-10-19T22:10:44.638Z,14.10
2018-10-19T22:15:48.605Z,14.10
2018-10-19T22:20:52.578Z,14.10
2018-10-19T22:25:57.510Z,14.00
2018-10-19T22:31:02.323Z,14.00
2018-10-19T22:36:06.472Z,13.70
2018-10-19T22:41:10.650Z,13.70
2018-10-19T22:46:14.668Z,13.70
2018-10-19T22:51:18.730Z,13.70
2018-10-19T22:56:22.656Z,13.70
2018-10-19T23:01:30.321Z,13.70
2018-10-19T23:06:34.408Z,13.70
2018-10-19T23:11:38.386Z,13.60
2018-10-19T23:16:42.508Z,13.60
2018-10-19T23:21:46.874Z,13.50
2018-10-19T23:26:50.932Z,13.50
2018-10-19T23:31:54.855Z,13.50
2018-10-19T23:36:58.949Z,13.40
2018-10-19T23:42:02.921Z,13.30
2018-10-19T23:47:06.952Z,13.30
2018-10-19T23:52:11.092Z,13.20
2018-10-19T23:57:15.026Z,13.20
